Strona główna
METAR-TAF:

METAR-TAF

Lotnisko :

Beauvechain, Belgia

Szerokość geograficzna: 50-45N, Długość geograficzna: 004-46E, wysokość: 105 m

Aktualna obserwacja pogody

Raport powstał 26 minut temu, godzina 22:55 UTC
Wiatr 4 kt od zachodnio-północny zachód
Temperatura 6°C
Wilgotność 70%
Ciśnienie 1024 hPa
Widzialność 10 km lub więcej

METAR: EBBE 232255Z AUTO 30004KT 9999 SCT110/// BKN250/// 06/01 Q1024 BLU

czas: 00:21 (23:21 UTC)


TAF: brakujący

Obserwacja i prognoza pogody dla ponad 4000 lotnisk (raport METAR i TAF).

Dostępne stacje oznaczono żółtymi i czerwonymi punktami na mapie.

Najedź kursorem aby zobaczyć nazwę stacji.

Kliknij aby zobaczyć obserwacje i prognozy pogody.

Aby zmienić mapę: kliknij na zielony przycisk z czarnym krzyżykiem, aby powiększyć; na zielony przycisk z myślnikiem, aby pomniejszyć; na zielone strzałki, aby przejść do map sąsiednich.


METAR-TAF: